METAR Data
IDs: Format: Raw Decoded Include TAF

Data at: 1839 UTC 25 Mar 2019

KDFW 251753Z 03014KT 10SM FEW040 FEW250 19/08 A3022 RMK AO2 SLP228 T01940083 10194 20117 51015
KDFW 251653Z 01014KT 10SM FEW250 18/08 A3022 RMK AO2 SLP227 T01830083
KDFW 251553Z 02013KT 10SM CLR 18/09 A3021 RMK AO2 SLP223 T01780089
KDFW 251453Z 36013KT 10SM FEW060 16/09 A3018 RMK AO2 SLP213 T01560089 53022
KDFW 251353Z 02009KT 10SM FEW060 14/09 A3014 RMK AO2 SLP202 T01390089
KDFW 251253Z 01006KT 10SM FEW060 12/09 A3012 RMK AO2 SLP194 T01170089
KDFW 251153Z 01007KT 10SM FEW060 12/09 A3011 RMK AO2 SLP191 70040 T01220089 10172 20122 51027
KDFW 251053Z 01010KT 10SM BKN060 13/09 A3009 RMK AO2 SLP181 T01330094
KDFW 250953Z 36008KT 10SM FEW060 14/10 A3006 RMK AO2 SLP171 T01390100
KDFW 250853Z 03007KT 10SM FEW060 14/11 A3003 RMK AO2 SLP162 T01440106 53004
KDFW 250753Z 01010KT 10SM FEW060 15/12 A3001 RMK AO2 SLP154 T01500117
KDFW 250653Z 36014KT 10SM BKN065 BKN085 17/13 A3002 RMK AO2 SLP158 FRQ LTGICCC DSNT SE-S CB DSNT SE-S MOV SE T01670128
KDFW 250553Z 34009KT 10SM FEW032 SCT041 BKN060 17/16 A3002 RMK AO2 LTG DSNT E-SW RAB20E44 TSB20E49 SLP158 TS MOVD SE P0015 60040 T01720156 10256 20167 402830156 53014
KDFW 250543Z COR 33010KT 6SM -TSRA SCT036 BKN049CB BKN055 18/16 A3001 RMK AO2 LTG DSNT E AND SW RAB20 TSB20 FQT LTGICCC NE-OHD-SW TS NE-OHD-SW MOV SE P0015 T01780161
KDFW 250532Z 35012KT 2SM R17C/2600VP6000FT TSRA BR FEW031 BKN046CB OVC055 17/15 A3002 RMK AO2 LTG DSNT ALQDS RAB20 TSB20 CONS LTGICCC W-OHD TS W-OHD MOV SE P0010 T01670150
KDFW 250523Z 34020KT 6SM -TSRA BKN046CB OVC055 18/14 A3003 RMK AO2 LTG DSNT W RAB20 TSB20 PRESRR OCNL LTGIC W TS W MOV E P0001 T01830144
KDFW 250453Z 31009KT 10SM BKN048 BKN150 20/15 A3000 RMK AO2 LTG DSNT NE SLP152 T02000150
KDFW 250353Z 23008KT 10SM FEW022 FEW043CB SCT095 BKN170 BKN250 20/17 A2998 RMK AO2 LTG DSNT NE AND E RAE33GRB11E22 TSB04E29 SLP147 FRQ LTGICCG NE-E TS MOVD E CB NE-E MOV E P0018 T02000167
KDFW 250335Z 26008KT 10SM VCTS FEW031 SCT043CB BKN080 BKN170 BKN250 21/17 A2999 RMK AO2 LTG DSNT NE AND E RAE33GRB11E22 TSB04E29 FRQ LTGICCG NE-E TS MOVD E CB NE-E MOV E P0018 T02060172
KDFW 250328Z 25010KT 10SM -TSRA FEW031 SCT043CB BKN080 BKN170 BKN250 21/18 A2999 RMK AO2 LTG DSNT NE GRB11E22 TSB04 FRQ LTGICCG NE-E TS NE-E MOV E P0018 T02060178
KDFW 250321Z 26010KT 3SM R17C/5000VP6000FT -TSGRRA BR SCT045CB BKN080 BKN170 BKN250 19/18 A2999 RMK AO2 LTG DSNT NE GRB11 TSB04 FRQ LTGICCG SW-W TS SW-W MOV E GR 1/2 P0018 T01940178
KDFW 250314Z 26013G20KT 1 3/4SM R17C/5000VP6000FT +TSGRRA SCT045CB BKN080 BKN170 BKN250 21/17 A2999 RMK AO2 LTG DSNT NE GRB11 TSB04 FRQ LTGICCG SW-W TS SW-W MOV E GR 1/2 P0013 T02060172
KDFW 250310Z 24012KT 3SM TSRA SCT045CB BKN080 BKN170 BKN250 22/17 A3000 RMK AO2 LTG DSNT NE TSB04 PRESRR FRQ LTGICCG SW-W TS SW-W MOV E GR 1/2 P0001 T02220172
KDFW 250253Z 22007KT 10SM VCTS -RA SCT048CB BKN100 BKN170 BKN250 22/18 A2997 RMK AO2 LTG DSNT W RAB51 TSE49 SLP144 FRQ LTGICCG SW-W CB SW-W MOV E P0000 60007 T02170178 53025
KDFW 250153Z 23008KT 10SM SCT055 SCT090 BKN160 BKN250 23/17 A2995 RMK AO2 LTG DSNT NE RAB0059E29 TSE34 SLP136 OCNL LTGIC DSNT NE-E TS MOVD E CB DSNT NE-E MOV E P0007 T02280172
KDFW 250134Z 21009KT 10SM SCT055 BKN090 BKN160 BKN250 22/18 A2994 RMK AO2 LTG DSNT NE RAB0059E29 TSE34 OCNL LTGIC DSNT NE-E TS MOVD E CB DSNT NE-E MOV E P0007 T02220178
KDFW 250053Z COR 17013KT 10SM TS SCT055CB BKN160 BKN250 24/16 A2992 RMK AO2 LTG DSNT W-NE TSE33B53 SLP125 OCNL LTGICCG W-NE TS W-NE MOV E T02440161
KDFW 250039Z 18016G22KT 10SM VCTS SCT055CB BKN160 BKN250 24/16 A2991 RMK AO2 LTG DSNT ALQDS TSE33 OCNL LTGICCG W-NW DSNT NE-E CB W-NW DSNT NE-E MOV E T02440161
KDFW 242353Z 18017KT 10SM FEW055 FEW120 SCT250 26/17 A2990 RMK AO2 LTG DSNT NW-E SLP118 OCNL LTGIC DSNT NW-NE CB DSNT NW-NE MOV E T02560167 10283 20250 56013
KDFW 242253Z 17018G25KT 10SM FEW055 FEW120 BKN250 26/16 A2990 RMK AO2 LTG DSNT N AND NE SLP119 CB DSNT NW-NE MOV E T02610161
KDFW 242153Z 18013KT 10SM SCT050TCU BKN120 BKN250 27/16 A2993 RMK AO2 SLP127 TCU ALQDS T02720161
KDFW 242053Z 17012G18KT 10SM BKN049 BKN065 BKN085 BKN250 27/16 A2994 RMK AO2 SLP132 MDT CU ALQDS T02670156 56024
KDFW 241953Z 17010KT 10SM FEW040 BKN055 BKN300 27/16 A2996 RMK AO2 SLP137 T02720156
KDFW 241853Z 18011G19KT 10SM SCT037 BKN300 27/16 A2999 RMK AO2 SLP146 T02720161
KDFW 241753Z 21014KT 10SM BKN034 BKN300 25/16 A3001 RMK AO2 SLP156 T02500156 10256 20156 58006
KDFW 241707Z 22015KT 10SM BKN030 BKN300 24/16 A3003 RMK AO2 T02390156
KDFW 241653Z 24014KT 10SM BKN028 BKN300 24/16 A3003 RMK AO2 SLP161 T02440161
KDFW 241620Z 20013KT 10SM FEW023 SCT027 BKN300 24/16 A3003 RMK AO2 T02390161
KDFW 241553Z 20014KT 10SM BKN017 BKN300 22/16 A3003 RMK AO2 SLP164 T02220161
KDFW 241527Z 20014KT 10SM BKN015 BKN300 22/16 A3003 RMK AO2 T02170161
KDFW 241453Z 20016KT 10SM BKN012 BKN017 BKN300 19/16 A3003 RMK AO2 SLP164 T01940161 53010
KDFW 241427Z 19017KT 10SM OVC010 19/16 A3003 RMK AO2 T01890161
KDFW 241353Z 19018KT 9SM OVC007 17/16 A3002 RMK AO2 SLP160 T01720156
KDFW 241328Z 19016KT 9SM BKN007 OVC020 17/16 A3002 RMK AO2 T01670156
KDFW 241253Z 18009KT 9SM FEW020 FEW300 16/15 A3001 RMK AO2 SLP158 T01610150
KDFW 241153Z 18010KT 10SM FEW039 16/14 A3000 RMK AO2 SLP154 T01610144 10189 20161 53002
KDFW 241053Z 17010KT 10SM FEW039 16/14 A2999 RMK AO2 SLP150 T01610144
KDFW 240953Z 17010KT 10SM FEW039 17/14 A2999 RMK AO2 SLP149 T01670144
KDFW 240853Z 18009KT 10SM FEW039 FEW250 17/14 A2999 RMK AO2 SLP152 T01720144 58004
KDFW 240753Z 18012KT 10SM SCT039 SCT250 18/14 A3000 RMK AO2 SLP155 T01780144
KDFW 240653Z 18013KT 10SM OVC039 19/14 A3001 RMK AO2 SLP156 T01890144